sensor_id;sensor_type;location;lat;lon;timestamp;temperature;humidity
59556;DHT22;45374;52.746;6.304;2022-09-03T00:00:52;15.90;99.90
59556;DHT22;45374;52.746;6.304;2022-09-03T00:03:30;15.80;99.90
59556;DHT22;45374;52.746;6.304;2022-09-03T00:06:17;15.80;99.90
59556;DHT22;45374;52.746;6.304;2022-09-03T00:09:02;15.80;99.90
59556;DHT22;45374;52.746;6.304;2022-09-03T00:14:10;15.70;99.90
59556;DHT22;45374;52.746;6.304;2022-09-03T00:19:10;15.60;99.90
59556;DHT22;45374;52.746;6.304;2022-09-03T00:21:45;15.60;99.90
59556;DHT22;45374;52.746;6.304;2022-09-03T00:24:17;15.50;99.90
59556;DHT22;45374;52.746;6.304;2022-09-03T00:26:49;15.50;99.90
59556;DHT22;45374;52.746;6.304;2022-09-03T00:29:34;15.50;99.90
59556;DHT22;45374;52.746;6.304;2022-09-03T00:32:10;15.50;99.90
59556;DHT22;45374;52.746;6.304;2022-09-03T00:34:40;15.40;99.90
59556;DHT22;45374;52.746;6.304;2022-09-03T00:37:08;15.40;99.90
59556;DHT22;45374;52.746;6.304;2022-09-03T00:39:35;15.40;99.90
59556;DHT22;45374;52.746;6.304;2022-09-03T00:42:15;15.40;99.90
59556;DHT22;45374;52.746;6.304;2022-09-03T00:47:33;15.30;99.90
59556;DHT22;45374;52.746;6.304;2022-09-03T00:58:46;15.20;99.90
59556;DHT22;45374;52.746;6.304;2022-09-03T01:01:27;15.20;99.90
59556;DHT22;45374;52.746;6.304;2022-09-03T01:09:56;15.10;99.90
59556;DHT22;45374;52.746;6.304;2022-09-03T01:15:15;15.00;99.90
59556;DHT22;45374;52.746;6.304;2022-09-03T01:23:55;15.00;99.90
59556;DHT22;45374;52.746;6.304;2022-09-03T01:26:29;14.90;99.90
59556;DHT22;45374;52.746;6.304;2022-09-03T01:31:52;14.90;99.90
59556;DHT22;45374;52.746;6.304;2022-09-03T01:37:53;14.80;99.90
59556;DHT22;45374;52.746;6.304;2022-09-03T01:46:16;14.80;99.90
59556;DHT22;45374;52.746;6.304;2022-09-03T01:51:22;14.70;99.90
59556;DHT22;45374;52.746;6.304;2022-09-03T01:56:27;14.70;99.90
59556;DHT22;45374;52.746;6.304;2022-09-03T02:01:45;14.60;99.90
59556;DHT22;45374;52.746;6.304;2022-09-03T02:04:17;14.60;99.90
59556;DHT22;45374;52.746;6.304;2022-09-03T02:06:45;14.60;99.90
59556;DHT22;45374;52.746;6.304;2022-09-03T02:09:13;14.60;99.90
59556;DHT22;45374;52.746;6.304;2022-09-03T02:11:39;14.60;99.90
59556;DHT22;45374;52.746;6.304;2022-09-03T02:14:06;14.60;99.90
59556;DHT22;45374;52.746;6.304;2022-09-03T02:16:32;14.50;99.90
59556;DHT22;45374;52.746;6.304;2022-09-03T02:19:06;14.50;99.90
59556;DHT22;45374;52.746;6.304;2022-09-03T02:21:38;14.50;99.90
59556;DHT22;45374;52.746;6.304;2022-09-03T02:24:06;14.50;99.90
59556;DHT22;45374;52.746;6.304;2022-09-03T02:26:32;14.60;99.90
59556;DHT22;45374;52.746;6.304;2022-09-03T02:29:00;14.50;99.90
59556;DHT22;45374;52.746;6.304;2022-09-03T02:31:26;14.60;99.90
59556;DHT22;45374;52.746;6.304;2022-09-03T02:33:54;14.60;99.90
59556;DHT22;45374;52.746;6.304;2022-09-03T02:36:24;14.60;99.90
59556;DHT22;45374;52.746;6.304;2022-09-03T02:38:51;14.60;99.90
59556;DHT22;45374;52.746;6.304;2022-09-03T02:41:16;14.70;99.90
59556;DHT22;45374;52.746;6.304;2022-09-03T02:43:53;14.70;99.90
59556;DHT22;45374;52.746;6.304;2022-09-03T02:46:23;14.70;99.90
59556;DHT22;45374;52.746;6.304;2022-09-03T02:48:52;14.80;99.90
59556;DHT22;45374;52.746;6.304;2022-09-03T02:51:18;14.80;99.90
59556;DHT22;45374;52.746;6.304;2022-09-03T02:53:44;14.80;99.90
59556;DHT22;45374;52.746;6.304;2022-09-03T02:56:10;14.80;99.90
59556;DHT22;45374;52.746;6.304;2022-09-03T02:58:35;14.90;99.90
59556;DHT22;45374;52.746;6.304;2022-09-03T03:01:01;14.80;99.90
59556;DHT22;45374;52.746;6.304;2022-09-03T03:03:27;14.90;99.90
59556;DHT22;45374;52.746;6.304;2022-09-03T03:05:55;14.90;99.90
59556;DHT22;45374;52.746;6.304;2022-09-03T03:08:24;14.80;99.90
59556;DHT22;45374;52.746;6.304;2022-09-03T03:10:53;14.90;99.90
59556;DHT22;45374;52.746;6.304;2022-09-03T03:13:21;14.80;99.90
59556;DHT22;45374;52.746;6.304;2022-09-03T03:15:47;14.90;99.90
59556;DHT22;45374;52.746;6.304;2022-09-03T03:18:13;14.90;99.90
59556;DHT22;45374;52.746;6.304;2022-09-03T03:20:40;14.90;99.90
59556;DHT22;45374;52.746;6.304;2022-09-03T03:23:07;14.90;99.90
59556;DHT22;45374;52.746;6.304;2022-09-03T03:25:37;14.80;99.90
59556;DHT22;45374;52.746;6.304;2022-09-03T03:28:04;14.80;99.90
59556;DHT22;45374;52.746;6.304;2022-09-03T03:30:30;14.80;99.90
59556;DHT22;45374;52.746;6.304;2022-09-03T03:32:56;14.80;99.90
59556;DHT22;45374;52.746;6.304;2022-09-03T03:35:22;14.80;99.90
59556;DHT22;45374;52.746;6.304;2022-09-03T03:37:47;14.80;99.90
59556;DHT22;45374;52.746;6.304;2022-09-03T03:40:13;14.80;99.90
59556;DHT22;45374;52.746;6.304;2022-09-03T03:42:40;14.80;99.90
59556;DHT22;45374;52.746;6.304;2022-09-03T03:45:06;14.80;99.90
59556;DHT22;45374;52.746;6.304;2022-09-03T03:47:33;14.80;99.90
59556;DHT22;45374;52.746;6.304;2022-09-03T03:49:59;14.70;99.90
59556;DHT22;45374;52.746;6.304;2022-09-03T03:52:25;14.80;99.90
59556;DHT22;45374;52.746;6.304;2022-09-03T03:54:52;14.70;99.90
59556;DHT22;45374;52.746;6.304;2022-09-03T03:57:18;14.70;99.90
59556;DHT22;45374;52.746;6.304;2022-09-03T03:59:45;14.70;99.90
59556;DHT22;45374;52.746;6.304;2022-09-03T04:02:11;14.70;99.90
59556;DHT22;45374;52.746;6.304;2022-09-03T04:04:37;14.70;99.90
59556;DHT22;45374;52.746;6.304;2022-09-03T04:07:03;14.70;99.90
59556;DHT22;45374;52.746;6.304;2022-09-03T04:09:28;14.60;99.90
59556;DHT22;45374;52.746;6.304;2022-09-03T04:11:54;14.60;99.90
59556;DHT22;45374;52.746;6.304;2022-09-03T04:14:23;14.60;99.90
59556;DHT22;45374;52.746;6.304;2022-09-03T04:16:48;14.60;99.90
59556;DHT22;45374;52.746;6.304;2022-09-03T04:19:15;14.50;99.90
59556;DHT22;45374;52.746;6.304;2022-09-03T04:21:41;14.50;99.90
59556;DHT22;45374;52.746;6.304;2022-09-03T04:24:07;14.40;99.90
59556;DHT22;45374;52.746;6.304;2022-09-03T04:26:33;14.40;99.90
59556;DHT22;45374;52.746;6.304;2022-09-03T04:29:02;14.40;99.90
59556;DHT22;45374;52.746;6.304;2022-09-03T04:31:28;14.30;99.90
59556;DHT22;45374;52.746;6.304;2022-09-03T04:33:54;14.30;99.90
59556;DHT22;45374;52.746;6.304;2022-09-03T04:36:22;14.20;99.90
59556;DHT22;45374;52.746;6.304;2022-09-03T04:38:50;14.20;99.90
59556;DHT22;45374;52.746;6.304;2022-09-03T04:41:20;14.10;99.90
59556;DHT22;45374;52.746;6.304;2022-09-03T04:43:47;14.10;99.90
59556;DHT22;45374;52.746;6.304;2022-09-03T04:46:14;14.10;99.90
59556;DHT22;45374;52.746;6.304;2022-09-03T04:48:40;14.00;99.90
59556;DHT22;45374;52.746;6.304;2022-09-03T04:51:15;14.00;99.90
59556;DHT22;45374;52.746;6.304;2022-09-03T04:53:45;13.90;99.90
59556;DHT22;45374;52.746;6.304;2022-09-03T04:56:16;13.90;99.90
59556;DHT22;45374;52.746;6.304;2022-09-03T04:58:43;13.90;99.90
59556;DHT22;45374;52.746;6.304;2022-09-03T05:01:11;13.90;99.90
59556;DHT22;45374;52.746;6.304;2022-09-03T05:03:37;13.80;99.90
59556;DHT22;45374;52.746;6.304;2022-09-03T05:06:03;13.80;99.90
59556;DHT22;45374;52.746;6.304;2022-09-03T05:08:31;13.80;99.90
59556;DHT22;45374;52.746;6.304;2022-09-03T05:11:00;13.80;99.90
59556;DHT22;45374;52.746;6.304;2022-09-03T05:13:26;13.70;99.90
59556;DHT22;45374;52.746;6.304;2022-09-03T05:16:06;13.70;99.90
59556;DHT22;45374;52.746;6.304;2022-09-03T05:18:33;13.70;99.90
59556;DHT22;45374;52.746;6.304;2022-09-03T05:21:12;13.70;99.90
59556;DHT22;45374;52.746;6.304;2022-09-03T05:23:40;13.70;99.90
59556;DHT22;45374;52.746;6.304;2022-09-03T05:26:12;13.70;99.90
59556;DHT22;45374;52.746;6.304;2022-09-03T05:28:39;13.70;99.90
59556;DHT22;45374;52.746;6.304;2022-09-03T05:31:11;13.60;99.90
59556;DHT22;45374;52.746;6.304;2022-09-03T05:33:39;13.70;99.90
59556;DHT22;45374;52.746;6.304;2022-09-03T05:36:08;13.60;99.90
59556;DHT22;45374;52.746;6.304;2022-09-03T05:38:34;13.60;99.90
59556;DHT22;45374;52.746;6.304;2022-09-03T05:41:05;13.60;99.90
59556;DHT22;45374;52.746;6.304;2022-09-03T05:43:32;13.60;99.90
59556;DHT22;45374;52.746;6.304;2022-09-03T05:46:07;13.60;99.90
59556;DHT22;45374;52.746;6.304;2022-09-03T05:48:35;13.60;99.90
59556;DHT22;45374;52.746;6.304;2022-09-03T05:51:09;13.70;99.90
59556;DHT22;45374;52.746;6.304;2022-09-03T05:53:37;13.70;99.90
59556;DHT22;45374;52.746;6.304;2022-09-03T05:56:09;13.70;99.90
59556;DHT22;45374;52.746;6.304;2022-09-03T05:58:39;13.70;99.90
59556;DHT22;45374;52.746;6.304;2022-09-03T06:01:11;13.80;99.90
59556;DHT22;45374;52.746;6.304;2022-09-03T06:03:37;13.80;99.90
59556;DHT22;45374;52.746;6.304;2022-09-03T06:06:03;13.90;99.90
59556;DHT22;45374;52.746;6.304;2022-09-03T06:08:30;13.90;99.90
59556;DHT22;45374;52.746;6.304;2022-09-03T06:11:00;13.90;99.90
59556;DHT22;45374;52.746;6.304;2022-09-03T06:13:26;14.00;99.90
59556;DHT22;45374;52.746;6.304;2022-09-03T06:15:59;14.00;99.90
59556;DHT22;45374;52.746;6.304;2022-09-03T06:18:26;14.10;99.90
59556;DHT22;45374;52.746;6.304;2022-09-03T06:21:00;14.10;99.90
59556;DHT22;45374;52.746;6.304;2022-09-03T06:23:27;14.20;99.90
59556;DHT22;45374;52.746;6.304;2022-09-03T06:26:11;14.30;99.90
59556;DHT22;45374;52.746;6.304;2022-09-03T06:28:40;14.30;99.90
59556;DHT22;45374;52.746;6.304;2022-09-03T06:31:10;14.50;99.90
59556;DHT22;45374;52.746;6.304;2022-09-03T06:33:36;14.50;99.90
59556;DHT22;45374;52.746;6.304;2022-09-03T06:36:05;14.70;99.90
59556;DHT22;45374;52.746;6.304;2022-09-03T06:38:33;14.80;99.90
59556;DHT22;45374;52.746;6.304;2022-09-03T06:43:37;15.00;99.90
59556;DHT22;45374;52.746;6.304;2022-09-03T06:46:09;15.10;99.90
59556;DHT22;45374;52.746;6.304;2022-09-03T06:48:36;15.20;99.90
59556;DHT22;45374;52.746;6.304;2022-09-03T06:51:10;15.30;99.90
59556;DHT22;45374;52.746;6.304;2022-09-03T06:53:41;15.40;99.90
59556;DHT22;45374;52.746;6.304;2022-09-03T06:56:09;15.40;99.90
59556;DHT22;45374;52.746;6.304;2022-09-03T06:58:40;15.60;99.90
59556;DHT22;45374;52.746;6.304;2022-09-03T07:01:12;15.70;99.90
59556;DHT22;45374;52.746;6.304;2022-09-03T07:03:39;15.80;99.90
59556;DHT22;45374;52.746;6.304;2022-09-03T07:06:14;15.90;99.90
59556;DHT22;45374;52.746;6.304;2022-09-03T07:08:40;16.00;99.90
59556;DHT22;45374;52.746;6.304;2022-09-03T07:11:09;16.10;99.90
59556;DHT22;45374;52.746;6.304;2022-09-03T07:13:40;16.20;99.90
59556;DHT22;45374;52.746;6.304;2022-09-03T07:16:20;16.30;99.90
59556;DHT22;45374;52.746;6.304;2022-09-03T07:18:46;16.40;99.90
59556;DHT22;45374;52.746;6.304;2022-09-03T07:21:15;16.50;99.90
59556;DHT22;45374;52.746;6.304;2022-09-03T07:23:41;16.60;99.90
59556;DHT22;45374;52.746;6.304;2022-09-03T07:26:10;16.70;99.90
59556;DHT22;45374;52.746;6.304;2022-09-03T07:28:38;16.70;99.90
59556;DHT22;45374;52.746;6.304;2022-09-03T07:31:13;16.80;99.90
59556;DHT22;45374;52.746;6.304;2022-09-03T07:33:40;16.90;99.90
59556;DHT22;45374;52.746;6.304;2022-09-03T07:36:08;17.00;99.90
59556;DHT22;45374;52.746;6.304;2022-09-03T07:38:35;17.10;99.90
59556;DHT22;45374;52.746;6.304;2022-09-03T07:41:04;17.20;99.90
59556;DHT22;45374;52.746;6.304;2022-09-03T07:43:34;17.30;99.90
59556;DHT22;45374;52.746;6.304;2022-09-03T07:46:00;17.40;99.90
59556;DHT22;45374;52.746;6.304;2022-09-03T07:48:26;17.50;99.90
59556;DHT22;45374;52.746;6.304;2022-09-03T07:50:52;17.50;99.90
59556;DHT22;45374;52.746;6.304;2022-09-03T07:53:25;17.60;99.90
59556;DHT22;45374;52.746;6.304;2022-09-03T07:55:51;17.70;99.90
59556;DHT22;45374;52.746;6.304;2022-09-03T07:58:17;17.80;99.90
59556;DHT22;45374;52.746;6.304;2022-09-03T08:00:42;17.90;99.90
59556;DHT22;45374;52.746;6.304;2022-09-03T08:03:08;18.00;99.90
59556;DHT22;45374;52.746;6.304;2022-09-03T08:05:35;18.00;99.90
59556;DHT22;45374;52.746;6.304;2022-09-03T08:08:02;18.10;99.90
59556;DHT22;45374;52.746;6.304;2022-09-03T08:10:28;18.20;99.90
59556;DHT22;45374;52.746;6.304;2022-09-03T08:12:58;18.30;99.90
59556;DHT22;45374;52.746;6.304;2022-09-03T08:15:25;18.40;99.90
59556;DHT22;45374;52.746;6.304;2022-09-03T08:17:51;18.50;99.90
59556;DHT22;45374;52.746;6.304;2022-09-03T08:20:17;18.50;99.90
59556;DHT22;45374;52.746;6.304;2022-09-03T08:22:42;18.60;99.90
59556;DHT22;45374;52.746;6.304;2022-09-03T08:25:08;18.70;99.90
59556;DHT22;45374;52.746;6.304;2022-09-03T08:27:34;18.80;99.90
59556;DHT22;45374;52.746;6.304;2022-09-03T08:30:00;18.90;99.90
59556;DHT22;45374;52.746;6.304;2022-09-03T08:32:25;19.00;99.90
59556;DHT22;45374;52.746;6.304;2022-09-03T08:34:51;19.10;99.90
59556;DHT22;45374;52.746;6.304;2022-09-03T08:37:17;19.20;99.90
59556;DHT22;45374;52.746;6.304;2022-09-03T08:39:44;19.30;99.90
59556;DHT22;45374;52.746;6.304;2022-09-03T08:42:27;19.30;99.90
59556;DHT22;45374;52.746;6.304;2022-09-03T08:45:00;19.40;99.90
59556;DHT22;45374;52.746;6.304;2022-09-03T08:47:59;19.50;99.90
59556;DHT22;45374;52.746;6.304;2022-09-03T08:50:32;19.60;99.90
59556;DHT22;45374;52.746;6.304;2022-09-03T08:55:51;19.80;99.90
59556;DHT22;45374;52.746;6.304;2022-09-03T08:58:20;19.90;99.90
59556;DHT22;45374;52.746;6.304;2022-09-03T09:06:33;20.20;99.90
59556;DHT22;45374;52.746;6.304;2022-09-03T09:12:15;20.40;99.90
59556;DHT22;45374;52.746;6.304;2022-09-03T09:22:45;20.60;99.90
59556;DHT22;45374;52.746;6.304;2022-09-03T09:25:20;20.70;99.90
59556;DHT22;45374;52.746;6.304;2022-09-03T09:27:54;20.80;99.90
59556;DHT22;45374;52.746;6.304;2022-09-03T09:30:22;20.90;99.90
59556;DHT22;45374;52.746;6.304;2022-09-03T09:32:48;21.00;99.90
59556;DHT22;45374;52.746;6.304;2022-09-03T09:35:16;21.00;99.90
59556;DHT22;45374;52.746;6.304;2022-09-03T09:37:50;21.20;99.90
59556;DHT22;45374;52.746;6.304;2022-09-03T09:40:30;21.30;99.90
59556;DHT22;45374;52.746;6.304;2022-09-03T09:43:14;21.40;99.90
59556;DHT22;45374;52.746;6.304;2022-09-03T09:45:43;21.40;99.90
59556;DHT22;45374;52.746;6.304;2022-09-03T09:50:40;21.60;99.90
59556;DHT22;45374;52.746;6.304;2022-09-03T09:53:08;21.70;99.90
59556;DHT22;45374;52.746;6.304;2022-09-03T09:55:53;21.80;99.90
59556;DHT22;45374;52.746;6.304;2022-09-03T09:58:24;21.90;99.90
59556;DHT22;45374;52.746;6.304;2022-09-03T10:01:20;22.00;99.90
59556;DHT22;45374;52.746;6.304;2022-09-03T10:03:57;22.10;99.60
59556;DHT22;45374;52.746;6.304;2022-09-03T10:06:25;22.20;99.60
59556;DHT22;45374;52.746;6.304;2022-09-03T10:09:12;22.30;99.80
59556;DHT22;45374;52.746;6.304;2022-09-03T10:11:45;22.30;99.70
59556;DHT22;45374;52.746;6.304;2022-09-03T10:14:24;22.50;99.60
59556;DHT22;45374;52.746;6.304;2022-09-03T10:16:57;22.50;99.10
59556;DHT22;45374;52.746;6.304;2022-09-03T10:19:38;22.60;99.10
59556;DHT22;45374;52.746;6.304;2022-09-03T10:22:18;22.70;98.40
59556;DHT22;45374;52.746;6.304;2022-09-03T10:24:52;22.70;98.60
59556;DHT22;45374;52.746;6.304;2022-09-03T10:27:21;22.80;98.50
59556;DHT22;45374;52.746;6.304;2022-09-03T10:29:47;22.90;97.70
59556;DHT22;45374;52.746;6.304;2022-09-03T10:35:28;23.00;97.30
59556;DHT22;45374;52.746;6.304;2022-09-03T10:40:39;23.10;96.70
59556;DHT22;45374;52.746;6.304;2022-09-03T10:51:03;23.30;96.10
59556;DHT22;45374;52.746;6.304;2022-09-03T11:01:46;23.50;95.30
59556;DHT22;45374;52.746;6.304;2022-09-03T11:07:08;23.50;94.70
59556;DHT22;45374;52.746;6.304;2022-09-03T11:09:38;23.60;94.40
59556;DHT22;45374;52.746;6.304;2022-09-03T11:12:10;23.60;94.30
59556;DHT22;45374;52.746;6.304;2022-09-03T11:14:40;23.70;94.20
59556;DHT22;45374;52.746;6.304;2022-09-03T11:20:21;23.80;94.00
59556;DHT22;45374;52.746;6.304;2022-09-03T11:22:53;23.80;93.70
59556;DHT22;45374;52.746;6.304;2022-09-03T11:25:21;23.90;93.20
59556;DHT22;45374;52.746;6.304;2022-09-03T11:28:15;23.90;93.20
59556;DHT22;45374;52.746;6.304;2022-09-03T11:34:06;24.00;91.90
59556;DHT22;45374;52.746;6.304;2022-09-03T11:36:35;24.00;92.70
59556;DHT22;45374;52.746;6.304;2022-09-03T11:39:13;24.10;92.30
59556;DHT22;45374;52.746;6.304;2022-09-03T11:41:42;24.10;91.00
59556;DHT22;45374;52.746;6.304;2022-09-03T11:44:35;24.00;91.40
59556;DHT22;45374;52.746;6.304;2022-09-03T11:47:13;24.10;91.10
59556;DHT22;45374;52.746;6.304;2022-09-03T11:49:45;24.10;91.50
59556;DHT22;45374;52.746;6.304;2022-09-03T11:52:11;24.20;91.20
59556;DHT22;45374;52.746;6.304;2022-09-03T11:54:45;24.20;91.20
59556;DHT22;45374;52.746;6.304;2022-09-03T11:57:20;24.20;90.90
59556;DHT22;45374;52.746;6.304;2022-09-03T11:59:47;24.30;91.60
59556;DHT22;45374;52.746;6.304;2022-09-03T12:02:29;24.40;91.40
59556;DHT22;45374;52.746;6.304;2022-09-03T12:05:15;24.40;90.20
59556;DHT22;45374;52.746;6.304;2022-09-03T12:14:18;24.50;90.10
59556;DHT22;45374;52.746;6.304;2022-09-03T12:16:56;24.50;90.10
59556;DHT22;45374;52.746;6.304;2022-09-03T12:19:36;24.60;89.90
59556;DHT22;45374;52.746;6.304;2022-09-03T12:22:02;24.60;90.10
59556;DHT22;45374;52.746;6.304;2022-09-03T12:24:30;24.60;90.30
59556;DHT22;45374;52.746;6.304;2022-09-03T12:27:00;24.50;89.30
59556;DHT22;45374;52.746;6.304;2022-09-03T12:29:28;24.50;88.00
59556;DHT22;45374;52.746;6.304;2022-09-03T12:31:55;24.50;86.60
59556;DHT22;45374;52.746;6.304;2022-09-03T12:34:22;24.50;88.30
59556;DHT22;45374;52.746;6.304;2022-09-03T12:36:53;24.60;89.80
59556;DHT22;45374;52.746;6.304;2022-09-03T12:39:23;24.60;87.80
59556;DHT22;45374;52.746;6.304;2022-09-03T12:44:46;24.70;87.80
59556;DHT22;45374;52.746;6.304;2022-09-03T12:47:14;24.70;87.20
59556;DHT22;45374;52.746;6.304;2022-09-03T12:49:43;24.70;88.30
59556;DHT22;45374;52.746;6.304;2022-09-03T12:52:31;24.70;89.00
59556;DHT22;45374;52.746;6.304;2022-09-03T12:58:21;24.80;87.80
59556;DHT22;45374;52.746;6.304;2022-09-03T13:01:08;24.70;87.10
59556;DHT22;45374;52.746;6.304;2022-09-03T13:03:47;24.80;86.50
59556;DHT22;45374;52.746;6.304;2022-09-03T13:06:17;24.70;87.00
59556;DHT22;45374;52.746;6.304;2022-09-03T13:08:48;24.70;86.90
59556;DHT22;45374;52.746;6.304;2022-09-03T13:11:17;24.80;87.50
59556;DHT22;45374;52.746;6.304;2022-09-03T13:14:13;24.80;87.90
59556;DHT22;45374;52.746;6.304;2022-09-03T13:22:32;24.90;87.20
59556;DHT22;45374;52.746;6.304;2022-09-03T13:30:14;24.90;88.10
59556;DHT22;45374;52.746;6.304;2022-09-03T13:33:00;24.90;87.70
59556;DHT22;45374;52.746;6.304;2022-09-03T13:35:32;24.90;87.90
59556;DHT22;45374;52.746;6.304;2022-09-03T13:45:58;24.90;87.60
59556;DHT22;45374;52.746;6.304;2022-09-03T13:56:56;25.00;87.70
59556;DHT22;45374;52.746;6.304;2022-09-03T14:02:06;24.90;86.60
59556;DHT22;45374;52.746;6.304;2022-09-03T14:06:03;25.00;85.40
59556;DHT22;45374;52.746;6.304;2022-09-03T14:08:14;25.00;86.50
59556;DHT22;45374;52.746;6.304;2022-09-03T14:18:58;25.10;87.10
59556;DHT22;45374;52.746;6.304;2022-09-03T14:21:33;25.10;86.80
59556;DHT22;45374;52.746;6.304;2022-09-03T14:24:08;24.90;87.20
59556;DHT22;45374;52.746;6.304;2022-09-03T14:26:36;24.90;86.60
59556;DHT22;45374;52.746;6.304;2022-09-03T14:29:03;24.80;86.60
59556;DHT22;45374;52.746;6.304;2022-09-03T14:40:12;25.00;85.10
59556;DHT22;45374;52.746;6.304;2022-09-03T14:54:10;25.20;84.80
59556;DHT22;45374;52.746;6.304;2022-09-03T14:57:13;25.20;84.60
59556;DHT22;45374;52.746;6.304;2022-09-03T15:13:18;25.20;85.50
59556;DHT22;45374;52.746;6.304;2022-09-03T15:15:56;25.20;85.70
59556;DHT22;45374;52.746;6.304;2022-09-03T15:18:42;25.00;85.70
59556;DHT22;45374;52.746;6.304;2022-09-03T15:21:25;25.10;86.30
59556;DHT22;45374;52.746;6.304;2022-09-03T15:24:14;25.10;86.10
59556;DHT22;45374;52.746;6.304;2022-09-03T15:32:21;25.20;83.40
59556;DHT22;45374;52.746;6.304;2022-09-03T15:35:42;25.20;83.60
59556;DHT22;45374;52.746;6.304;2022-09-03T15:37:43;25.20;82.40
59556;DHT22;45374;52.746;6.304;2022-09-03T15:40:27;25.20;83.30
59556;DHT22;45374;52.746;6.304;2022-09-03T15:43:22;25.20;84.20
59556;DHT22;45374;52.746;6.304;2022-09-03T15:46:26;25.20;84.40
59556;DHT22;45374;52.746;6.304;2022-09-03T15:49:16;25.20;87.00
59556;DHT22;45374;52.746;6.304;2022-09-03T15:57:32;25.00;88.60
59556;DHT22;45374;52.746;6.304;2022-09-03T16:00:06;25.00;89.80
59556;DHT22;45374;52.746;6.304;2022-09-03T16:03:09;24.90;89.00
59556;DHT22;45374;52.746;6.304;2022-09-03T16:08:54;25.00;88.40
59556;DHT22;45374;52.746;6.304;2022-09-03T16:11:47;25.10;87.80
59556;DHT22;45374;52.746;6.304;2022-09-03T16:14:30;25.10;86.90
59556;DHT22;45374;52.746;6.304;2022-09-03T16:17:32;25.20;86.90
59556;DHT22;45374;52.746;6.304;2022-09-03T16:20:13;25.30;85.30
59556;DHT22;45374;52.746;6.304;2022-09-03T16:23:03;25.30;84.60
59556;DHT22;45374;52.746;6.304;2022-09-03T16:25:34;25.30;84.60
59556;DHT22;45374;52.746;6.304;2022-09-03T16:28:26;25.30;84.60
59556;DHT22;45374;52.746;6.304;2022-09-03T16:33:44;25.20;85.20
59556;DHT22;45374;52.746;6.304;2022-09-03T16:36:34;25.20;85.30
59556;DHT22;45374;52.746;6.304;2022-09-03T16:56:07;24.70;85.90
59556;DHT22;45374;52.746;6.304;2022-09-03T16:59:00;24.60;86.10
59556;DHT22;45374;52.746;6.304;2022-09-03T17:02:09;24.50;86.60
59556;DHT22;45374;52.746;6.304;2022-09-03T17:21:23;24.00;88.10
59556;DHT22;45374;52.746;6.304;2022-09-03T17:24:30;24.10;88.60
59556;DHT22;45374;52.746;6.304;2022-09-03T17:27:04;24.10;88.40
59556;DHT22;45374;52.746;6.304;2022-09-03T17:38:10;23.90;88.30
59556;DHT22;45374;52.746;6.304;2022-09-03T17:41:59;23.80;89.00
59556;DHT22;45374;52.746;6.304;2022-09-03T17:49:06;23.50;88.70
59556;DHT22;45374;52.746;6.304;2022-09-03T17:51:41;23.40;88.80
59556;DHT22;45374;52.746;6.304;2022-09-03T17:57:21;23.20;88.40
59556;DHT22;45374;52.746;6.304;2022-09-03T18:00:03;23.00;88.60
59556;DHT22;45374;52.746;6.304;2022-09-03T18:05:24;22.60;89.30
59556;DHT22;45374;52.746;6.304;2022-09-03T18:10:48;22.40;89.90
59556;DHT22;45374;52.746;6.304;2022-09-03T18:13:31;22.20;90.00
59556;DHT22;45374;52.746;6.304;2022-09-03T18:16:05;22.10;90.20
59556;DHT22;45374;52.746;6.304;2022-09-03T18:18:41;21.90;90.30
59556;DHT22;45374;52.746;6.304;2022-09-03T18:21:16;21.80;90.40
59556;DHT22;45374;52.746;6.304;2022-09-03T18:24:31;21.70;90.60
59556;DHT22;45374;52.746;6.304;2022-09-03T18:27:20;21.60;90.80
59556;DHT22;45374;52.746;6.304;2022-09-03T18:30:08;21.50;90.90
59556;DHT22;45374;52.746;6.304;2022-09-03T18:32:53;21.40;91.10
59556;DHT22;45374;52.746;6.304;2022-09-03T18:35:38;21.30;91.60
59556;DHT22;45374;52.746;6.304;2022-09-03T18:38:30;21.20;91.30
59556;DHT22;45374;52.746;6.304;2022-09-03T18:41:43;21.10;91.50
59556;DHT22;45374;52.746;6.304;2022-09-03T18:47:39;20.90;91.90
59556;DHT22;45374;52.746;6.304;2022-09-03T18:53:50;20.70;92.30
59556;DHT22;45374;52.746;6.304;2022-09-03T18:56:44;20.70;92.40
59556;DHT22;45374;52.746;6.304;2022-09-03T19:03:01;20.50;92.80
59556;DHT22;45374;52.746;6.304;2022-09-03T19:06:04;20.40;93.00
59556;DHT22;45374;52.746;6.304;2022-09-03T19:09:24;20.30;93.10
59556;DHT22;45374;52.746;6.304;2022-09-03T19:12:42;20.30;93.40
59556;DHT22;45374;52.746;6.304;2022-09-03T19:15:38;20.20;93.30
59556;DHT22;45374;52.746;6.304;2022-09-03T19:21:47;20.10;93.60
59556;DHT22;45374;52.746;6.304;2022-09-03T19:24:32;20.00;93.90
59556;DHT22;45374;52.746;6.304;2022-09-03T19:33:42;19.80;94.60
59556;DHT22;45374;52.746;6.304;2022-09-03T19:36:55;19.70;94.80
59556;DHT22;45374;52.746;6.304;2022-09-03T19:43:24;19.60;95.00
59556;DHT22;45374;52.746;6.304;2022-09-03T19:46:42;19.60;95.40
59556;DHT22;45374;52.746;6.304;2022-09-03T19:56:00;19.40;95.30
59556;DHT22;45374;52.746;6.304;2022-09-03T19:58:53;19.40;95.40
59556;DHT22;45374;52.746;6.304;2022-09-03T20:01:38;19.30;95.90
59556;DHT22;45374;52.746;6.304;2022-09-03T20:04:40;19.30;95.60
59556;DHT22;45374;52.746;6.304;2022-09-03T20:07:27;19.30;96.00
59556;DHT22;45374;52.746;6.304;2022-09-03T20:10:14;19.20;95.90
59556;DHT22;45374;52.746;6.304;2022-09-03T20:13:10;19.10;96.30
59556;DHT22;45374;52.746;6.304;2022-09-03T20:18:16;19.00;96.80
59556;DHT22;45374;52.746;6.304;2022-09-03T20:21:01;18.90;97.10
59556;DHT22;45374;52.746;6.304;2022-09-03T20:23:39;18.90;97.40
59556;DHT22;45374;52.746;6.304;2022-09-03T20:26:22;18.80;97.40
59556;DHT22;45374;52.746;6.304;2022-09-03T20:29:00;18.70;97.80
59556;DHT22;45374;52.746;6.304;2022-09-03T20:31:45;18.70;97.60
59556;DHT22;45374;52.746;6.304;2022-09-03T20:34:44;18.60;97.90
59556;DHT22;45374;52.746;6.304;2022-09-03T20:37:49;18.60;98.10
59556;DHT22;45374;52.746;6.304;2022-09-03T20:43:40;18.50;98.30
59556;DHT22;45374;52.746;6.304;2022-09-03T20:48:49;18.40;98.50
59556;DHT22;45374;52.746;6.304;2022-09-03T20:51:19;18.30;98.60
59556;DHT22;45374;52.746;6.304;2022-09-03T20:54:12;18.30;98.80
59556;DHT22;45374;52.746;6.304;2022-09-03T21:02:29;18.20;99.40
59556;DHT22;45374;52.746;6.304;2022-09-03T21:05:37;18.10;99.30
59556;DHT22;45374;52.746;6.304;2022-09-03T21:22:24;17.80;99.90
59556;DHT22;45374;52.746;6.304;2022-09-03T21:24:35;17.80;99.90
59556;DHT22;45374;52.746;6.304;2022-09-03T21:27:11;17.80;99.90
59556;DHT22;45374;52.746;6.304;2022-09-03T21:30:02;17.80;99.90
59556;DHT22;45374;52.746;6.304;2022-09-03T21:35:53;17.70;99.90
59556;DHT22;45374;52.746;6.304;2022-09-03T21:38:26;17.70;99.90
59556;DHT22;45374;52.746;6.304;2022-09-03T21:43:37;17.60;99.90
59556;DHT22;45374;52.746;6.304;2022-09-03T21:46:20;17.60;99.90